Time;durP1;ratioP1;P1;durP2;ratioP2;P2;SDS_P1;SDS_P2;PMS_P1;PMS_P2;Temp;Humidity;BMP_temperature;BMP_pressure;BME280_temperature;BME280_humidity;BME280_pressure;Samples;Min_cycle;Max_cycle;Signal;HPM_P1;HPM_P2
2022/05/29 04:22:38;;;;;;;7.80;2.63;;;;;;;10.76;67.46;99957.44;5129747;27;20141;-78
2022/05/29 04:25:04;;;;;;;9.13;2.88;;;;;;;10.68;68.99;99944.16;5130025;28;20031;-78
2022/05/29 04:27:30;;;;;;;6.88;2.85;;;;;;;10.67;69.80;99948.66;5130705;28;20031;-78
2022/05/29 04:29:55;;;;;;;13.80;3.10;;;;;;;10.56;71.18;99936.63;5125279;22;20037;-76
2022/05/29 04:35:05;;;;;;;5.05;3.10;;;;;;;10.45;73.05;99937.06;5050499;28;20040;-75
2022/05/29 04:37:31;;;;;;;14.50;3.50;;;;;;;10.49;72.98;99937.50;5068548;28;20036;-76
2022/05/29 04:39:57;;;;;;;7.65;3.30;;;;;;;10.51;73.31;99941.66;5068413;28;20041;-76
2022/05/29 04:42:22;;;;;;;14.43;4.50;;;;;;;10.51;73.59;99928.34;5068062;28;20037;-76
2022/05/29 04:44:48;;;;;;;9.20;2.97;;;;;;;10.55;74.07;99950.94;5050311;28;20490;-77
2022/05/29 04:47:13;;;;;;;6.25;3.20;;;;;;;10.59;73.71;99952.25;5050284;28;20489;-77
2022/05/29 04:49:39;;;;;;;6.22;2.95;;;;;;;10.55;74.08;99947.44;5068171;28;20079;-77
2022/05/29 04:52:08;;;;;;;8.82;3.20;;;;;;;10.58;75.19;99960.41;5067730;28;20131;-76
2022/05/29 04:54:35;;;;;;;6.38;3.08;;;;;;;10.71;74.27;99957.13;5068132;28;20074;-77
2022/05/29 04:57:02;;;;;;;8.07;3.17;;;;;;;10.71;74.92;99954.47;5068111;28;20047;-76
2022/05/29 04:59:27;;;;;;;10.52;4.35;;;;;;;10.70;74.33;99964.31;5067813;28;20546;-76
2022/05/29 05:01:55;;;;;;;9.88;3.78;;;;;;;10.73;74.83;99963.09;5049601;28;20029;-76
2022/05/29 05:04:21;;;;;;;7.38;3.42;;;;;;;10.76;74.83;99974.25;5067826;28;20119;-76
2022/05/29 05:06:46;;;;;;;8.82;3.30;;;;;;;10.87;73.77;99964.97;5050025;28;20453;-76
2022/05/29 05:09:12;;;;;;;10.90;3.13;;;;;;;10.85;74.89;99967.00;5067722;28;20115;-75
2022/05/29 05:11:37;;;;;;;8.82;3.00;;;;;;;10.79;76.38;99968.53;5067381;28;20660;-76
2022/05/29 05:14:03;;;;;;;8.48;3.20;;;;;;;10.78;76.00;99958.06;5067436;28;20040;-76
2022/05/29 05:16:29;;;;;;;7.43;3.28;;;;;;;10.91;73.94;99968.94;5049863;28;20177;-76
2022/05/29 05:18:55;;;;;;;10.82;3.45;;;;;;;10.89;74.48;99976.28;5067474;28;20496;-76
2022/05/29 05:21:20;;;;;;;10.70;3.38;;;;;;;10.76;74.94;99957.44;5067418;28;20122;-76
2022/05/29 05:23:45;;;;;;;6.57;3.35;;;;;;;10.92;74.89;99972.41;5067079;28;20163;-75
2022/05/29 05:26:13;;;;;;;8.75;3.33;;;;;;;10.96;74.94;99974.53;5067317;28;20040;-76
2022/05/29 05:28:38;;;;;;;11.60;3.53;;;;;;;10.79;72.92;99965.88;5067655;28;20440;-75
2022/05/29 05:31:04;;;;;;;8.82;4.00;;;;;;;10.83;72.96;99967.19;5049408;28;20123;-75
2022/05/29 05:33:29;;;;;;;9.30;3.78;;;;;;;10.88;72.89;99966.59;5056484;28;20060;-76
2022/05/29 05:35:56;;;;;;;12.68;3.55;;;;;;;10.81;72.21;99971.00;5054214;28;20036;-75
2022/05/29 05:38:22;;;;;;;9.65;3.28;;;;;;;10.87;72.83;99964.97;5036261;28;20029;-75
2022/05/29 05:40:47;;;;;;;13.82;4.40;;;;;;;10.96;72.88;99969.22;5036239;28;20039;-76
2022/05/29 05:43:13;;;;;;;10.55;3.50;;;;;;;10.96;72.29;99971.06;5036075;28;20041;-76
2022/05/29 05:45:42;;;;;;;10.40;3.72;;;;;;;10.98;72.13;99967.19;5054712;28;20139;-76
2022/05/29 05:48:08;;;;;;;10.93;3.80;;;;;;;10.96;72.09;99961.22;5053895;28;20075;-75
2022/05/29 05:50:34;;;;;;;21.60;12.02;;;;;;;11.12;72.20;99962.88;5054009;28;20052;-77
2022/05/29 05:53:00;;;;;;;10.75;4.15;;;;;;;11.04;72.26;99971.78;5053503;28;20064;-76
2022/05/29 05:55:25;;;;;;;11.77;6.53;;;;;;;11.20;72.59;99970.78;5053720;28;20072;-76
2022/05/29 05:57:53;;;;;;;11.55;4.07;;;;;;;11.20;70.75;99977.94;5053635;28;20124;-77
2022/05/29 06:00:19;;;;;;;4.93;2.85;;;;;;;11.23;70.04;99974.94;5053582;28;20581;-75
2022/05/29 06:02:45;;;;;;;13.18;6.05;;;;;;;11.33;70.38;99978.94;5053240;28;20028;-76
2022/05/29 06:05:12;;;;;;;13.10;4.63;;;;;;;11.27;69.69;99971.69;5053481;28;20409;-77
2022/05/29 06:07:37;;;;;;;11.38;3.85;;;;;;;11.30;68.36;99975.84;5053553;28;20553;-78
2022/05/29 06:10:03;;;;;;;11.07;3.63;;;;;;;11.35;69.04;99971.63;5036267;28;20047;-75
2022/05/29 06:12:29;;;;;;;13.73;5.47;;;;;;;11.39;70.08;99974.72;5036154;28;20143;-75
2022/05/29 06:14:54;;;;;;;17.02;6.65;;;;;;;11.50;69.50;99982.25;5019463;28;20057;-74
2022/05/29 06:17:20;;;;;;;9.00;3.92;;;;;;;11.38;70.46;99983.75;5035932;28;20474;-75
2022/05/29 06:19:46;;;;;;;8.63;3.53;;;;;;;11.54;69.63;99978.22;5053281;28;20116;-75
2022/05/29 06:22:11;;;;;;;8.38;3.78;;;;;;;11.52;69.74;99996.22;5034862;28;20076;-75
2022/05/29 06:24:37;;;;;;;9.95;4.43;;;;;;;11.57;70.13;99993.00;5053144;28;20106;-74
2022/05/29 06:27:03;;;;;;;7.32;2.92;;;;;;;11.61;69.91;99995.13;5035097;28;20397;-75
2022/05/29 06:29:29;;;;;;;6.72;3.13;;;;;;;11.62;70.36;99994.13;5052810;28;20111;-75
2022/05/29 06:32:00;;;;;;;9.00;3.65;;;;;;;11.77;67.98;100006.59;5052525;28;20569;-75
2022/05/29 06:34:25;;;;;;;8.95;4.38;;;;;;;11.95;68.38;100004.41;5052908;28;20045;-76
2022/05/29 06:36:51;;;;;;;10.25;4.95;;;;;;;11.88;68.17;100004.31;5052903;28;20044;-75
2022/05/29 06:39:16;;;;;;;8.25;4.28;;;;;;;12.00;69.54;100003.81;5052632;28;20478;-75
2022/05/29 06:41:43;;;;;;;9.65;4.00;;;;;;;12.01;68.51;99997.47;5052454;28;20033;-75
2022/05/29 06:44:10;;;;;;;12.23;5.13;;;;;;;12.29;67.62;99997.56;5033729;28;20032;-74
2022/05/29 06:46:36;;;;;;;13.27;4.95;;;;;;;12.34;66.50;99997.84;5052535;28;20033;-74
2022/05/29 06:49:01;;;;;;;16.38;4.32;;;;;;;12.36;66.53;99993.94;5052590;28;20044;-72
2022/05/29 06:51:27;;;;;;;10.65;3.45;;;;;;;12.39;67.11;99998.91;5052400;28;20045;-75
2022/05/29 06:53:55;;;;;;;9.15;4.30;;;;;;;12.49;65.71;99999.41;5052402;28;20143;-73
2022/05/29 06:56:21;;;;;;;10.02;3.70;;;;;;;12.56;66.92;100001.31;5052417;28;20039;-73
2022/05/29 06:58:48;;;;;;;7.78;3.03;;;;;;;12.38;67.25;100004.41;5034484;28;20041;-74
2022/05/29 07:07:00;;;;;;;8.77;3.85;;;;;;;12.32;65.84;100010.53;5051946;28;20087;-72
2022/05/29 07:09:39;;;;;;;13.25;4.00;;;;;;;12.29;65.28;100016.25;5051920;28;20041;-73
2022/05/29 07:12:21;;;;;;;7.70;3.38;;;;;;;12.20;64.63;100015.56;5050993;28;20033;-73
2022/05/29 07:14:58;;;;;;;9.90;2.90;;;;;;;12.22;64.53;100010.84;5051739;28;20048;-73
2022/05/29 07:17:23;;;;;;;13.55;3.78;;;;;;;12.11;65.18;100006.81;5051735;28;20029;-72
2022/05/29 07:19:49;;;;;;;8.70;3.08;;;;;;;12.12;64.30;100024.50;5051831;28;20379;-73
2022/05/29 07:22:15;;;;;;;8.88;3.17;;;;;;;12.07;64.94;100016.25;5051169;28;20112;-73
2022/05/29 07:24:43;;;;;;;10.38;2.88;;;;;;;12.22;64.04;100030.38;5051916;28;20090;-71
2022/05/29 07:27:08;;;;;;;9.85;3.10;;;;;;;12.23;64.13;100023.19;5051736;28;20071;-73
2022/05/29 07:29:34;;;;;;;8.38;3.17;;;;;;;12.03;64.86;100025.63;5051593;28;20049;-72
2022/05/29 07:32:00;;;;;;;7.88;3.10;;;;;;;12.05;65.32;100023.59;5029274;28;20171;-73
2022/05/29 07:34:27;;;;;;;6.93;3.13;;;;;;;11.99;66.61;100019.00;5031670;28;20037;-73
2022/05/29 07:36:53;;;;;;;6.30;2.63;;;;;;;12.05;66.91;100012.91;5031608;28;20064;-72
2022/05/29 07:39:20;;;;;;;6.93;2.85;;;;;;;12.09;67.46;100010.72;5031622;28;20183;-73
2022/05/29 07:44:29;;;;;;;6.47;3.13;;;;;;;11.99;70.77;100020.84;5031259;28;20112;-74
2022/05/29 07:46:56;;;;;;;7.25;2.85;;;;;;;11.91;70.69;100027.94;5031044;28;20121;-72
2022/05/29 07:49:21;;;;;;;8.25;3.25;;;;;;;11.93;73.59;100027.75;4997575;28;20049;-72
2022/05/29 07:51:48;;;;;;;7.38;3.00;;;;;;;11.97;73.91;100026.38;5012850;28;20041;-73
2022/05/29 07:54:13;;;;;;;8.85;2.80;;;;;;;11.80;76.96;100023.09;5031979;28;20038;-72
2022/05/29 07:56:39;;;;;;;8.63;2.80;;;;;;;11.84;74.12;100034.22;5013408;28;20095;-72
2022/05/29 07:59:05;;;;;;;7.63;2.85;;;;;;;11.71;74.96;100034.03;5031324;28;20033;-72
2022/05/29 08:01:30;;;;;;;7.75;3.20;;;;;;;11.85;72.77;100033.22;5030470;28;20474;-72
2022/05/29 08:03:56;;;;;;;5.97;2.90;;;;;;;11.80;73.35;100032.91;5050272;28;20048;-72
2022/05/29 08:06:22;;;;;;;8.35;2.53;;;;;;;11.83;73.44;100032.56;5051452;28;20041;-71
2022/05/29 08:08:47;;;;;;;7.40;2.80;;;;;;;11.73;72.74;100029.31;5051068;28;20078;-72
2022/05/29 08:11:15;;;;;;;8.20;2.85;;;;;;;11.74;73.26;100028.34;5051076;28;20045;-72
2022/05/29 08:13:40;;;;;;;7.78;2.95;;;;;;;11.56;73.14;100039.38;5050345;28;20041;-72
2022/05/29 08:16:06;;;;;;;8.68;2.47;;;;;;;11.44;74.66;100032.84;5051160;28;20051;-73
2022/05/29 08:18:31;;;;;;;8.88;2.80;;;;;;;11.20;76.76;100018.75;5050571;28;20052;-72
2022/05/29 08:20:57;;;;;;;8.10;2.15;;;;;;;11.22;74.82;100023.94;5016704;28;20086;-73
2022/05/29 08:23:23;;;;;;;4.30;2.28;;;;;;;11.17;75.17;100024.47;5050090;28;20040;-73
2022/05/29 08:31:22;;;;;;;6.03;2.05;;;;;;;11.04;77.16;100027.75;5050631;28;20037;-73
2022/05/29 08:33:48;;;;;;;6.05;2.67;;;;;;;11.16;77.38;100019.31;5049843;28;20402;-73
2022/05/29 08:36:18;;;;;;;7.40;2.30;;;;;;;11.11;77.48;100026.03;5050687;28;20037;-72
2022/05/29 08:38:46;;;;;;;6.43;2.60;;;;;;;11.33;76.77;100031.47;5032885;28;20041;-73
2022/05/29 08:41:12;;;;;;;;;;;;;;;11.43;77.33;100036.53;5051616;28;20039;-73
2022/05/29 08:43:43;;;;;;;6.75;3.75;;;;;;;11.47;79.25;100025.28;5031873;28;19912;-73
2022/05/29 08:46:16;;;;;;;5.10;3.00;;;;;;;11.54;77.50;100031.56;5032907;28;20060;-72
2022/05/29 08:48:42;;;;;;;6.13;2.40;;;;;;;11.69;78.07;100037.72;5050639;28;20036;-72
2022/05/29 08:51:44;;;;;;;6.03;2.75;;;;;;;11.80;77.66;100035.56;5050852;28;20386;-73
2022/05/29 08:54:12;;;;;;;5.88;2.60;;;;;;;11.89;76.12;100034.50;5050612;28;20037;-73
2022/05/29 08:56:48;;;;;;;4.95;2.35;;;;;;;11.78;75.04;100033.09;5050611;28;20108;-72
2022/05/29 08:59:45;;;;;;;6.43;2.20;;;;;;;11.86;76.83;100035.69;5050669;28;20140;-71
2022/05/29 09:02:34;;;;;;;4.13;2.60;;;;;;;11.88;76.72;100040.88;5049800;28;20083;-71
2022/05/29 09:05:21;;;;;;;5.68;2.17;;;;;;;12.00;76.09;100035.84;5050398;28;20041;-72
2022/05/29 09:07:49;;;;;;;7.10;2.47;;;;;;;12.10;75.88;100036.38;5051389;28;20417;-72
2022/05/29 09:10:22;;;;;;;6.10;2.45;;;;;;;12.08;75.58;100035.75;5054225;28;20366;-72
2022/05/29 09:12:52;;;;;;;6.22;2.30;;;;;;;12.31;77.02;100032.91;5054087;28;20037;-72
2022/05/29 09:15:36;;;;;;;6.15;2.38;;;;;;;12.41;73.74;100028.09;5053964;28;20515;-71
2022/05/29 09:18:14;;;;;;;5.88;2.85;;;;;;;12.65;72.06;100034.88;5054502;28;20029;-71
2022/05/29 09:20:46;;;;;;;4.00;2.15;;;;;;;12.65;74.42;100035.75;5054263;28;20048;-72
2022/05/29 09:23:18;;;;;;;5.85;2.30;;;;;;;12.59;71.66;100027.66;5054042;28;20040;-72
2022/05/29 09:25:44;;;;;;;6.63;2.40;;;;;;;12.66;73.12;100031.22;5054266;28;20036;-71
2022/05/29 09:28:24;;;;;;;3.67;2.28;;;;;;;12.70;72.22;100035.97;5054262;28;20029;-72
2022/05/29 09:30:54;;;;;;;4.63;2.42;;;;;;;12.98;71.40;100027.16;5036052;28;20517;-71
2022/05/29 09:33:26;;;;;;;11.00;2.60;;;;;;;13.00;70.45;100025.94;5035857;28;20098;-71
2022/05/29 09:35:52;;;;;;;3.58;2.25;;;;;;;13.38;68.87;100025.63;5054061;28;20509;-71
2022/05/29 09:38:29;;;;;;;6.72;2.33;;;;;;;13.35;67.47;100026.00;5053843;28;20041;-71
2022/05/29 09:41:02;;;;;;;5.15;2.10;;;;;;;13.60;66.75;100022.84;5053986;28;20135;-72
2022/05/29 09:43:29;;;;;;;5.65;2.42;;;;;;;13.30;67.52;100029.28;5053618;28;20426;-72
2022/05/29 09:45:55;;;;;;;3.60;2.10;;;;;;;13.22;68.41;100021.38;5053823;28;20029;-73
2022/05/29 09:51:21;;;;;;;5.35;3.08;;;;;;;13.82;68.32;100024.38;5053651;28;20037;-71
2022/05/29 09:54:09;;;;;;;4.00;2.20;;;;;;;14.11;66.15;100025.94;5053217;28;20386;-71
2022/05/29 09:56:35;;;;;;;5.22;2.22;;;;;;;14.26;64.18;100028.44;5053700;28;20030;-71
2022/05/29 09:59:18;;;;;;;3.58;2.17;;;;;;;14.38;63.61;100016.94;5053521;28;20037;-71
2022/05/29 10:01:47;;;;;;;5.05;2.30;;;;;;;14.68;61.93;100005.88;5053299;28;20041;-72
2022/05/29 10:04:21;;;;;;;3.00;1.90;;;;;;;15.32;62.13;100015.94;5053486;28;20044;-72
2022/05/29 10:06:53;;;;;;;4.07;2.13;;;;;;;15.48;58.21;100006.59;5035532;28;20082;-71
2022/05/29 10:09:25;;;;;;;4.82;2.72;;;;;;;15.71;57.33;100000.78;5035490;28;20044;-71
2022/05/29 10:11:59;;;;;;;3.78;1.83;;;;;;;16.04;55.08;99994.41;5052943;28;20043;-72
2022/05/29 10:14:39;;;;;;;4.10;1.70;;;;;;;15.51;55.18;99994.63;5036494;28;20037;-72
2022/05/29 10:17:36;;;;;;;4.38;1.50;;;;;;;15.88;55.94;100001.94;5053352;28;20056;-71
2022/05/29 10:20:03;;;;;;;4.35;1.50;;;;;;;16.41;56.59;99987.38;5052997;28;20033;-71
2022/05/29 10:22:37;;;;;;;2.42;1.58;;;;;;;16.93;51.96;99985.34;5052822;28;20490;-73
2022/05/29 10:25:15;;;;;;;2.75;1.63;;;;;;;16.48;51.81;99980.09;5053136;28;20116;-71
2022/05/29 10:27:44;;;;;;;2.30;1.58;;;;;;;17.29;50.49;99984.59;5053074;28;20029;-72
2022/05/29 10:30:25;;;;;;;6.43;1.95;;;;;;;17.24;48.86;99970.97;5035299;28;20041;-72
2022/05/29 10:33:03;;;;;;;2.90;1.58;;;;;;;18.11;46.50;99969.69;5052700;28;20044;-72
2022/05/29 10:35:32;;;;;;;5.82;1.85;;;;;;;18.10;47.23;99968.06;5035909;28;20421;-72
2022/05/29 10:38:15;;;;;;;3.97;1.75;;;;;;;17.08;47.56;99970.53;5052950;28;20079;-71
2022/05/29 10:40:42;;;;;;;3.90;1.42;;;;;;;17.95;45.66;99969.53;5052717;28;20178;-71
2022/05/29 10:43:08;;;;;;;5.57;1.77;;;;;;;18.17;46.80;99967.97;5052434;28;20041;-71
2022/05/29 10:45:41;;;;;;;4.28;1.83;;;;;;;18.60;43.84;99951.53;5052755;28;20127;-72
2022/05/29 10:48:20;;;;;;;5.75;1.60;;;;;;;18.75;45.32;99953.00;5052551;28;20032;-71
2022/05/29 10:51:01;;;;;;;4.00;1.63;;;;;;;19.29;43.96;99954.47;5052454;28;20102;-71
2022/05/29 10:53:48;;;;;;;2.47;1.63;;;;;;;19.40;43.95;99950.13;5052249;28;20047;-72
2022/05/29 10:56:51;;;;;;;4.30;1.83;;;;;;;19.49;42.61;99945.97;5052553;28;20091;-72
2022/05/29 10:59:54;;;;;;;5.45;1.90;;;;;;;20.17;38.77;99955.19;5034492;28;20043;-72
2022/05/29 11:05:25;;;;;;;4.85;1.58;;;;;;;20.91;38.78;99938.81;5052375;28;20094;-72
2022/05/29 11:08:22;;;;;;;3.35;1.63;;;;;;;21.18;38.01;99941.63;5052366;28;20052;-72
2022/05/29 11:11:12;;;;;;;3.97;1.45;;;;;;;19.72;38.68;99943.25;5052028;28;20029;-72
2022/05/29 11:14:00;;;;;;;5.40;1.98;;;;;;;19.50;39.86;99931.44;5017502;28;20490;-71
2022/05/29 11:16:52;;;;;;;3.38;1.80;;;;;;;18.94;39.37;99924.84;5003571;28;20049;-71
2022/05/29 11:19:45;;;;;;;6.38;2.05;;;;;;;19.61;41.31;99922.50;5051987;28;20033;-71
2022/05/29 11:22:36;;;;;;;5.00;1.83;;;;;;;20.31;38.64;99911.34;5033821;28;20032;-72
2022/05/29 11:25:31;;;;;;;4.30;1.42;;;;;;;20.20;37.88;99906.81;5051973;28;20132;-71
2022/05/29 11:28:11;;;;;;;8.90;2.13;;;;;;;19.33;38.11;99907.06;5051986;28;20043;-71
2022/05/29 11:30:50;;;;;;;4.93;2.17;;;;;;;20.40;39.46;99906.34;5033351;28;20113;-71
2022/05/29 11:33:56;;;;;;;4.47;1.42;;;;;;;21.08;37.94;99904.41;5033566;28;20039;-71
2022/05/29 11:36:43;;;;;;;3.47;1.53;;;;;;;20.23;36.66;99897.41;5051925;28;20037;-72
2022/05/29 11:39:24;;;;;;;3.35;1.40;;;;;;;18.90;39.70;99900.19;5033914;28;20260;-71
2022/05/29 11:41:51;;;;;;;5.78;1.50;;;;;;;18.87;39.60;99894.47;5033429;28;20041;-71
2022/05/29 11:44:34;;;;;;;3.85;1.60;;;;;;;18.13;41.69;99902.94;5051885;28;20033;-71
2022/05/29 11:53:15;;;;;;;4.50;1.60;;;;;;;17.72;41.51;99882.16;5033398;28;20363;-71
2022/05/29 11:55:43;;;;;;;3.47;1.10;;;;;;;17.94;41.43;99877.09;5034391;28;20033;-71
2022/05/29 11:58:24;;;;;;;4.53;1.85;;;;;;;18.02;40.89;99878.63;5051520;28;20052;-72
2022/05/29 12:01:14;;;;;;;3.75;1.70;;;;;;;17.68;45.26;99875.59;5033238;28;20144;-71
2022/05/29 12:03:49;;;;;;;5.15;1.58;;;;;;;17.53;41.85;99873.28;5051112;28;20151;-72
2022/05/29 12:06:34;;;;;;;3.75;1.77;;;;;;;17.81;41.18;99870.03;5033588;28;20041;-71
2022/05/29 12:09:32;;;;;;;4.30;1.50;;;;;;;17.60;43.28;99855.19;5051094;28;20502;-71
2022/05/29 12:12:06;;;;;;;3.83;1.63;;;;;;;18.25;41.51;99865.19;4999963;28;20053;-71
2022/05/29 12:14:40;;;;;;;4.82;1.73;;;;;;;18.85;40.19;99865.03;5051227;28;20033;-72
2022/05/29 12:17:25;;;;;;;6.88;1.73;;;;;;;19.24;37.15;99863.41;5033267;28;20068;-72
2022/05/29 12:19:53;;;;;;;5.60;1.65;;;;;;;19.58;35.73;99863.56;5051136;28;20124;-71
2022/05/29 12:22:27;;;;;;;5.45;1.75;;;;;;;19.70;36.12;99850.00;5033064;28;20130;-72
2022/05/29 12:24:56;;;;;;;4.45;1.63;;;;;;;20.26;36.36;99856.34;5051332;28;20068;-72
2022/05/29 12:27:24;;;;;;;4.70;1.63;;;;;;;20.89;35.95;99859.75;5051168;28;20108;-72
2022/05/29 12:30:05;;;;;;;3.95;1.58;;;;;;;21.12;33.78;99851.38;5050915;28;20090;-73
2022/05/29 12:32:34;;;;;;;4.32;1.65;;;;;;;21.61;34.85;99854.16;5033077;28;20037;-73
2022/05/29 12:35:07;;;;;;;4.22;1.65;;;;;;;21.86;30.89;99849.00;5051001;28;20033;-73
2022/05/29 12:38:01;;;;;;;5.40;1.52;;;;;;;22.52;29.56;99846.00;5051113;28;20033;-72
2022/05/29 12:41:03;;;;;;;4.75;1.75;;;;;;;22.82;28.82;99845.41;5050923;28;20033;-74
2022/05/29 12:43:53;;;;;;;4.32;1.40;;;;;;;22.64;31.72;99856.69;5053079;28;20055;-72
2022/05/29 12:46:36;;;;;;;4.63;1.92;;;;;;;22.92;31.67;99860.94;5054954;28;20051;-73
2022/05/29 12:49:19;;;;;;;9.27;1.77;;;;;;;21.45;32.83;99861.28;5054759;28;20045;-72
2022/05/29 12:52:17;;;;;;;4.82;1.65;;;;;;;21.38;33.50;99866.91;5054630;28;20037;-73
2022/05/29 12:55:07;;;;;;;2.95;1.30;;;;;;;20.78;35.40;99872.31;5054990;28;20041;-72
2022/05/29 12:57:44;;;;;;;4.15;1.42;;;;;;;19.36;38.00;99868.75;5054953;28;20036;-73
2022/05/29 13:00:28;;;;;;;5.18;2.00;;;;;;;18.92;39.77;99867.59;5054701;28;20029;-72
2022/05/29 13:03:18;;;;;;;5.70;2.15;;;;;;;18.20;41.95;99864.28;5054286;28;20028;-72
2022/05/29 13:06:11;;;;;;;8.05;1.98;;;;;;;18.23;41.13;99861.09;5036709;28;20186;-72
2022/05/29 13:09:10;;;;;;;6.25;1.67;;;;;;;17.94;41.09;99860.13;5054594;28;20090;-72
2022/05/29 13:11:41;;;;;;;5.47;2.00;;;;;;;17.91;41.63;99858.69;4987206;28;20089;-72
2022/05/29 13:14:09;;;;;;;3.78;1.52;;;;;;;17.82;42.29;99843.91;5037368;28;20033;-73
2022/05/29 13:16:43;;;;;;;4.82;2.22;;;;;;;17.40;42.86;99830.38;5029746;28;20623;-71
2022/05/29 13:19:18;;;;;;;2.35;1.50;;;;;;;17.13;44.37;99848.72;5043044;28;20513;-72
2022/05/29 13:22:10;;;;;;;5.90;1.90;;;;;;;17.22;43.44;99850.09;5028812;28;20402;-72
2022/05/29 13:24:42;;;;;;;4.05;1.75;;;;;;;17.49;42.78;99842.50;5042098;28;20065;-72
2022/05/29 13:27:11;;;;;;;4.45;1.73;;;;;;;18.03;41.74;99846.06;5009420;28;20043;-73
2022/05/29 13:29:40;;;;;;;5.18;2.13;;;;;;;18.00;40.40;99846.53;5026911;28;20040;-72
2022/05/29 13:32:14;;;;;;;6.65;2.03;;;;;;;17.68;41.81;99843.25;5043220;28;20060;-73
2022/05/29 13:34:43;;;;;;;3.70;2.08;;;;;;;18.02;41.20;99839.03;5044601;28;20037;-72
2022/05/29 13:37:22;;;;;;;4.30;2.10;;;;;;;17.74;40.29;99836.16;5044089;28;20033;-71
2022/05/29 13:40:06;;;;;;;4.85;1.50;;;;;;;18.09;38.86;99826.28;5044788;28;20028;-72
2022/05/29 13:42:39;;;;;;;2.65;1.52;;;;;;;17.99;37.46;99826.00;5044553;28;20581;-72
2022/05/29 13:45:19;;;;;;;3.05;1.27;;;;;;;17.78;40.29;99830.06;5045977;28;20071;-72
2022/05/29 13:47:52;;;;;;;2.75;1.33;;;;;;;18.21;40.01;99817.38;5044471;28;20059;-72
2022/05/29 13:50:27;;;;;;;2.55;1.65;;;;;;;17.96;39.91;99820.28;5044689;28;20509;-72
2022/05/29 13:52:58;;;;;;;7.30;2.80;;;;;;;18.10;38.15;99819.81;5043730;28;20026;-72
2022/05/29 13:55:26;;;;;;;3.55;2.00;;;;;;;17.44;36.44;99812.72;5044297;28;20048;-72
2022/05/29 14:03:58;;;;;;;;;;;;;;;17.31;35.82;99812.91;5053688;28;20079;-73
2022/05/29 14:06:37;;;;;;;5.78;2.40;;;;;;;17.44;36.60;99807.34;5053199;28;19924;-73
2022/05/29 14:09:23;;;;;;;5.35;1.90;;;;;;;17.52;38.27;99807.00;5053539;28;20071;-73
2022/05/29 14:11:51;;;;;;;6.32;2.08;;;;;;;17.53;37.22;99805.97;5035190;28;20055;-73
2022/05/29 14:14:37;;;;;;;3.90;1.58;;;;;;;17.25;39.17;99794.97;5053410;28;20044;-72
2022/05/29 14:17:27;;;;;;;4.20;1.58;;;;;;;17.57;37.03;99807.16;5053501;28;20044;-71
2022/05/29 14:19:55;;;;;;;4.75;2.03;;;;;;;17.49;37.09;99804.78;5053322;28;20041;-71
2022/05/29 14:22:58;;;;;;;5.32;1.60;;;;;;;17.23;39.82;99802.47;5052802;28;20032;-72
2022/05/29 14:25:30;;;;;;;3.97;1.60;;;;;;;17.23;38.06;99797.91;5053090;28;20041;-71
2022/05/29 14:28:04;;;;;;;4.63;1.70;;;;;;;17.42;37.60;99793.28;5035351;28;20040;-72
2022/05/29 14:30:54;;;;;;;3.60;1.80;;;;;;;17.32;37.69;99791.13;5053108;28;20029;-72
2022/05/29 14:33:34;;;;;;;3.05;1.52;;;;;;;17.46;38.86;99789.06;5052956;28;20041;-72
2022/05/29 14:36:08;;;;;;;2.53;1.63;;;;;;;17.54;36.62;99785.22;5052971;28;20162;-72
2022/05/29 14:38:56;;;;;;;3.30;1.63;;;;;;;17.67;36.70;99785.06;5052899;28;20563;-71
2022/05/29 14:41:40;;;;;;;3.38;1.63;;;;;;;17.80;35.48;99781.34;5052732;28;20036;-72
2022/05/29 14:44:13;;;;;;;4.60;1.27;;;;;;;17.88;37.43;99781.84;5052606;28;20037;-71
2022/05/29 14:49:26;;;;;;;4.03;1.77;;;;;;;17.55;36.43;99774.25;5037879;28;20083;-72
2022/05/29 14:52:27;;;;;;;3.40;1.30;;;;;;;17.76;36.65;99766.72;5014526;28;20441;-71
2022/05/29 14:54:59;;;;;;;3.25;1.50;;;;;;;17.79;36.45;99761.66;5032701;28;20087;-72
2022/05/29 14:57:29;;;;;;;3.83;1.40;;;;;;;17.81;35.64;99767.66;5032747;28;20033;-72
2022/05/29 14:59:56;;;;;;;3.17;1.38;;;;;;;17.88;35.75;99756.78;5032610;28;20390;-71
2022/05/29 15:02:25;;;;;;;3.17;1.17;;;;;;;17.80;36.78;99760.66;5032193;28;20052;-71
2022/05/29 15:04:51;;;;;;;4.68;1.70;;;;;;;17.69;38.64;99747.94;5032016;28;20279;-71
2022/05/29 15:10:36;;;;;;;5.85;1.85;;;;;;;17.72;39.36;99749.38;5032295;28;20041;-71
2022/05/29 15:13:08;;;;;;;6.45;1.73;;;;;;;17.66;38.47;99744.88;5031876;28;20038;-71
2022/05/29 15:15:37;;;;;;;2.38;1.50;;;;;;;17.78;38.39;99749.25;5032284;28;20116;-72
2022/05/29 15:18:33;;;;;;;3.38;1.65;;;;;;;17.52;38.69;99750.47;5032202;28;20059;-71
2022/05/29 15:24:15;;;;;;;4.70;1.35;;;;;;;17.75;38.10;99743.53;5031857;28;20061;-72
2022/05/29 15:26:56;;;;;;;5.80;1.50;;;;;;;17.98;37.15;99746.22;5032169;28;20048;-72
2022/05/29 15:29:31;;;;;;;4.45;1.40;;;;;;;17.93;37.94;99745.28;5031723;28;20037;-72
2022/05/29 15:32:01;;;;;;;7.78;1.73;;;;;;;18.02;38.97;99742.03;5014021;28;20030;-72
2022/05/29 15:34:26;;;;;;;4.07;1.40;;;;;;;18.13;38.95;99740.41;5032030;28;20073;-72
2022/05/29 15:37:14;;;;;;;2.15;1.30;;;;;;;18.05;39.33;99744.25;5032122;28;20025;-72
2022/05/29 15:39:42;;;;;;;5.65;1.77;;;;;;;17.91;38.76;99748.22;5014519;28;20037;-72
2022/05/29 15:42:18;;;;;;;13.05;6.22;;;;;;;17.92;39.16;99738.25;5048318;28;20056;-72
2022/05/29 15:44:47;;;;;;;4.28;1.90;;;;;;;17.81;37.77;99745.31;5052880;28;20048;-71
2022/05/29 15:47:27;;;;;;;4.15;2.05;;;;;;;17.36;38.69;99735.81;5053210;28;20037;-72
2022/05/29 15:50:19;;;;;;;4.15;1.63;;;;;;;17.22;38.53;99742.44;5055834;28;20048;-72
2022/05/29 15:53:15;;;;;;;3.72;2.00;;;;;;;16.88;38.49;99743.91;5052632;28;20029;-72
2022/05/29 15:55:53;;;;;;;4.97;2.10;;;;;;;16.90;39.33;99736.44;5051671;28;20076;-72
2022/05/29 15:58:43;;;;;;;2.78;1.25;;;;;;;16.70;39.37;99747.44;5033567;28;20033;-72
2022/05/29 16:01:15;;;;;;;1.75;1.15;;;;;;;16.46;39.13;99746.44;5051433;28;20033;-73
2022/05/29 16:03:42;;;;;;;4.43;1.50;;;;;;;16.55;40.05;99750.47;5049012;28;20075;-72
2022/05/29 16:06:23;;;;;;;3.17;1.75;;;;;;;16.77;40.93;99745.50;5031505;28;20044;-73
2022/05/29 16:09:04;;;;;;;3.13;1.70;;;;;;;16.73;38.70;99740.78;5013636;28;20052;-72
2022/05/29 16:11:51;;;;;;;2.90;1.48;;;;;;;16.88;38.47;99732.31;5031300;28;20040;-72
2022/05/29 16:14:38;;;;;;;4.45;1.60;;;;;;;16.74;39.97;99737.88;5031270;28;20037;-72
2022/05/29 16:17:39;;;;;;;5.38;1.45;;;;;;;16.84;38.74;99729.28;5013301;28;20037;-71
2022/05/29 16:20:34;;;;;;;5.40;2.05;;;;;;;16.98;39.86;99729.94;5026771;28;20042;-72
2022/05/29 16:23:25;;;;;;;3.22;1.60;;;;;;;16.84;39.62;99734.66;5031093;28;20127;-72
2022/05/29 16:26:04;;;;;;;2.78;1.55;;;;;;;16.84;38.00;99728.47;5024340;28;20434;-72
2022/05/29 16:28:40;;;;;;;4.07;1.42;;;;;;;16.75;38.66;99726.06;5031254;28;20041;-71
2022/05/29 16:31:41;;;;;;;7.07;1.90;;;;;;;16.55;38.14;99728.13;5055535;22;20395;-76
2022/05/29 16:34:26;;;;;;;4.97;2.38;;;;;;;16.60;38.10;99725.59;5021444;28;20525;-78
2022/05/29 16:49:01;;;;;;;5.60;4.07;;;;;;;16.47;38.70;99720.38;5013913;28;20045;-75
2022/05/29 16:51:48;;;;;;;4.70;2.13;;;;;;;16.49;37.23;99723.66;5031290;28;20034;-76
2022/05/29 16:54:26;;;;;;;;;;;;;;;16.33;37.23;99717.03;5014090;28;20068;-76
2022/05/29 16:57:07;;;;;;;3.95;1.60;;;;;;;16.36;37.42;99713.88;5031310;28;20377;-75
2022/05/29 16:59:58;;;;;;;4.82;2.35;;;;;;;16.18;37.83;99708.50;5013928;28;20041;-74
2022/05/29 17:02:29;;;;;;;3.97;2.75;;;;;;;16.22;38.87;99707.81;5003803;28;20133;-74
2022/05/29 17:05:01;;;;;;;5.72;2.15;;;;;;;16.07;37.51;99715.44;5013678;28;20103;-74
2022/05/29 17:07:39;;;;;;;7.72;2.25;;;;;;;15.99;37.66;99711.16;5013586;28;20041;-75
2022/05/29 17:10:19;;;;;;;5.10;1.60;;;;;;;15.95;36.75;99707.28;5013342;28;20029;-75
2022/05/29 17:12:45;;;;;;;4.07;1.60;;;;;;;16.09;36.87;99712.50;5028207;28;20038;-74
2022/05/29 17:15:14;;;;;;;3.33;1.98;;;;;;;16.04;37.16;99706.97;5030988;28;20423;-75
2022/05/29 17:17:40;;;;;;;2.63;1.73;;;;;;;16.00;37.48;99709.31;5013744;28;20703;-75
2022/05/29 17:20:08;;;;;;;4.57;2.30;;;;;;;15.98;38.32;99706.03;5031169;28;20068;-74
2022/05/29 17:22:56;;;;;;;7.90;5.07;;;;;;;15.90;39.49;99708.97;5013378;28;20097;-75